NameLast modifiedSizeDescription

[Up]Parent Directory  -  
[Static image]WHOTS_2017_Rainrate_2017_07_26_207.png2017-08-02 18:16 29K 
[Static image]WHOTS_2017_Rainrate_2017_07_27_208.png2017-08-02 18:17 30K 
[Static image]WHOTS_2017_Rainrate_2017_07_25_206.png2017-08-02 18:16 30K 
[Static image]WHOTS_2017_Rainrate_2017_07_29_210.png2017-08-02 18:17 31K 
[Static image]WHOTS_2017_Rainrate_2017_08_01_213.png2017-08-02 18:18 31K 
[Static image]WHOTS_2017_Rainrate_2017_07_28_209.png2017-08-02 18:17 32K 
[Static image]WHOTS_2017_Rainrate_2017_08_02_214.png2017-08-02 18:18 33K 
[Static image]WHOTS_2017_Rainrate_2017_07_31_212.png2017-08-02 18:17 34K 
[Static image]WHOTS_2017_Rainrate_2017_07_30_211.png2017-08-02 18:17 34K 
[Static image]WHOTS_2017_Heading_2017_07_25_206.png2017-08-02 18:16 49K 
[Static image]WHOTS_2017_RH_2017_07_25_206.png2017-08-02 18:16 51K 
[Static image]WHOTS_2017_RH_2017_07_27_208.png2017-08-02 18:17 51K 
[Static image]WHOTS_2017_RH_2017_07_29_210.png2017-08-02 18:17 52K 
[Static image]WHOTS_2017_RH_2017_08_02_214.png2017-08-02 18:18 52K 
[Static image]WHOTS_2017_RH_2017_07_26_207.png2017-08-02 18:16 53K 
[Static image]WHOTS_2017_Net_Heat_Flux_2017_07_31_212.png2017-08-02 18:17 54K 
[Static image]WHOTS_2017_RH_2017_08_01_213.png2017-08-02 18:18 54K 
[Static image]WHOTS_2017_RH_2017_07_28_209.png2017-08-02 18:17 54K 
[Static image]WHOTS_2017_Net_Heat_Flux_2017_07_30_211.png2017-08-02 18:17 54K 
[Static image]WHOTS_2017_Net_Heat_Flux_2017_07_29_210.png2017-08-02 18:17 55K 
[Static image]WHOTS_2017_Net_Heat_Flux_2017_07_26_207.png2017-08-02 18:16 55K 
[Static image]WHOTS_2017_RH_2017_07_30_211.png2017-08-02 18:17 56K 
[Static image]WHOTS_2017_RH_2017_07_31_212.png2017-08-02 18:17 56K 
[Static image]WHOTS_2017_Net_Heat_Flux_2017_07_27_208.png2017-08-02 18:17 56K 
[Static image]WHOTS_2017_Net_Heat_Flux_2017_08_02_214.png2017-08-02 18:18 57K 
[Static image]WHOTS_2017_Net_Heat_Flux_2017_07_28_209.png2017-08-02 18:17 57K 
[Static image]WHOTS_2017_Net_Heat_Flux_2017_08_01_213.png2017-08-02 18:18 57K 
[Static image]WHOTS_2017_Net_Heat_Flux_2017_07_25_206.png2017-08-02 18:16 57K 
[Static image]WHOTS_2017_Pressure_2017_07_25_206.png2017-08-02 18:16 57K 
[Static image]WHOTS_2017_Heading_2017_07_27_208.png2017-08-02 18:17 58K 
[Static image]WHOTS_2017_Solarflux_Comparison_2017_07_31_212.png2017-08-02 18:17 59K 
[Static image]WHOTS_2017_Friction_Velocity_2017_07_31_212.png2017-08-02 18:17 59K 
[Static image]WHOTS_2017_Solarflux_Comparison_2017_07_30_211.png2017-08-02 18:17 59K 
[Static image]WHOTS_2017_Solarflux_Comparison_2017_07_29_210.png2017-08-02 18:17 60K 
[Static image]WHOTS_2017_Friction_Velocity_2017_07_30_211.png2017-08-02 18:17 60K 
[Static image]WHOTS_2017_Pressure_2017_07_26_207.png2017-08-02 18:16 61K 
[Static image]WHOTS_2017_Heading_2017_07_26_207.png2017-08-02 18:16 61K 
[Static image]WHOTS_2017_Solarflux_Comparison_2017_07_26_207.png2017-08-02 18:16 61K 
[Static image]WHOTS_2017_Solarflux_Comparison_2017_08_02_214.png2017-08-02 18:18 61K 
[Static image]WHOTS_2017_Friction_Velocity_2017_07_27_208.png2017-08-02 18:17 62K 
[Static image]WHOTS_2017_Friction_Velocity_2017_08_01_213.png2017-08-02 18:18 62K 
[Static image]WHOTS_2017_Friction_Velocity_2017_07_29_210.png2017-08-02 18:17 62K 
[Static image]WHOTS_2017_Friction_Velocity_2017_08_02_214.png2017-08-02 18:18 62K 
[Static image]WHOTS_2017_Solarflux_Comparison_2017_07_28_209.png2017-08-02 18:17 63K 
[Static image]WHOTS_2017_Solarflux_Comparison_2017_07_27_208.png2017-08-02 18:17 63K 
[Static image]WHOTS_2017_Solarflux_Comparison_2017_07_25_206.png2017-08-02 18:16 63K 
[Static image]WHOTS_2017_Friction_Velocity_2017_07_25_206.png2017-08-02 18:16 63K 
[Static image]WHOTS_2017_Friction_Velocity_2017_07_28_209.png2017-08-02 18:17 63K 
[Static image]WHOTS_2017_Friction_Velocity_2017_07_26_207.png2017-08-02 18:16 64K 
[Static image]WHOTS_2017_Solarflux_Comparison_2017_08_01_213.png2017-08-02 18:18 64K 
[Static image]WHOTS_2017_Pressure_2017_08_02_214.png2017-08-02 18:18 64K 
[Static image]WHOTS_2017_Pressure_2017_07_28_209.png2017-08-02 18:17 65K 
[Static image]WHOTS_2017_Pressure_2017_08_01_213.png2017-08-02 18:18 65K 
[Static image]WHOTS_2017_Pressure_2017_07_31_212.png2017-08-02 18:17 65K 
[Static image]WHOTS_2017_Heading_2017_08_01_213.png2017-08-02 18:18 65K 
[Static image]WHOTS_2017_Pressure_2017_07_29_210.png2017-08-02 18:17 65K 
[Static image]WHOTS_2017_Pressure_2017_07_27_208.png2017-08-02 18:16 65K 
[Static image]WHOTS_2017_Heading_2017_07_29_210.png2017-08-02 18:17 66K 
[Static image]WHOTS_2017_Pressure_2017_07_30_211.png2017-08-02 18:17 66K 
[Static image]WHOTS_2017_Heading_2017_07_28_209.png2017-08-02 18:17 66K 
[Static image]WHOTS_2017_Heading_2017_07_31_212.png2017-08-02 18:17 68K 
[Static image]WHOTS_2017_Heading_2017_07_30_211.png2017-08-02 18:17 69K 
[Static image]WHOTS_2017_Heading_2017_08_02_214.png2017-08-02 18:18 71K 
[Static image]WHOTS_2017_Heat_Flux_Components_sea_2017_07_25_206.png2017-08-02 18:16 87K 
[Static image]WHOTS_2017_Temperatures_2017_07_27_208.png2017-08-02 18:16 87K 
[Static image]WHOTS_2017_Temperatures_2017_07_26_207.png2017-08-02 18:16 89K 
[Static image]WHOTS_2017_Temperatures_2017_07_29_210.png2017-08-02 18:17 90K 
[Static image]WHOTS_2017_IRflux_Comparison_2017_08_02_214.png2017-08-02 18:18 90K 
[Static image]WHOTS_2017_Heat_Flux_Components_sea_2017_07_31_212.png2017-08-02 18:17 90K 
[Static image]WHOTS_2017_IRflux_Comparison_2017_07_30_211.png2017-08-02 18:17 91K 
[Static image]WHOTS_2017_Heat_Flux_Components_sea_2017_07_30_211.png2017-08-02 18:17 91K 
[Static image]WHOTS_2017_IRflux_Comparison_2017_07_29_210.png2017-08-02 18:17 92K 
[Static image]WHOTS_2017_Temperatures_2017_07_30_211.png2017-08-02 18:17 92K 
[Static image]WHOTS_2017_Temperatures_2017_07_25_206.png2017-08-02 18:16 93K 
[Static image]WHOTS_2017_Heat_Flux_Components_sea_2017_07_26_207.png2017-08-02 18:16 93K 
[Static image]WHOTS_2017_IRflux_Comparison_2017_08_01_213.png2017-08-02 18:18 94K 
[Static image]WHOTS_2017_Heat_Flux_Components_sea_2017_07_27_208.png2017-08-02 18:17 94K 
[Static image]WHOTS_2017_Heat_Flux_Components_sea_2017_07_29_210.png2017-08-02 18:17 94K 
[Static image]WHOTS_2017_IRflux_Comparison_2017_07_26_207.png2017-08-02 18:16 94K 
[Static image]WHOTS_2017_COG_SOG_2017_07_27_208.png2017-08-02 18:17 94K 
[Static image]WHOTS_2017_IRflux_Comparison_2017_07_25_206.png2017-08-02 18:16 94K 
[Static image]WHOTS_2017_Heat_Flux_Components_sea_2017_08_01_213.png2017-08-02 18:18 95K 
[Static image]WHOTS_2017_IRflux_Comparison_2017_07_27_208.png2017-08-02 18:17 95K 
[Static image]WHOTS_2017_Heat_Flux_Components_sea_2017_08_02_214.png2017-08-02 18:18 95K 
[Static image]WHOTS_2017_IRflux_Comparison_2017_07_31_212.png2017-08-02 18:17 95K 
[Static image]WHOTS_2017_Temperatures_2017_08_01_213.png2017-08-02 18:18 97K 
[Static image]WHOTS_2017_Heat_Flux_Components_sea_2017_07_28_209.png2017-08-02 18:17 97K 
[Static image]WHOTS_2017_True_Winds_2017_07_27_208.png2017-08-02 18:17 97K 
[Static image]WHOTS_2017_Temperatures_2017_07_28_209.png2017-08-02 18:17 97K 
[Static image]WHOTS_2017_Temperatures_2017_08_02_214.png2017-08-02 18:18 98K 
[Static image]WHOTS_2017_IRflux_Comparison_2017_07_28_209.png2017-08-02 18:17 98K 
[Static image]WHOTS_2017_True_Winds_2017_07_30_211.png2017-08-02 18:17 99K 
[Static image]WHOTS_2017_COG_SOG_2017_07_26_207.png2017-08-02 18:16 99K 
[Static image]WHOTS_2017_Temperatures_2017_07_31_212.png2017-08-02 18:17 99K 
[Static image]WHOTS_2017_True_Winds_2017_07_31_212.png2017-08-02 18:17 100K 
[Static image]WHOTS_2017_True_Winds_2017_07_29_210.png2017-08-02 18:17 100K 
[Static image]WHOTS_2017_True_Winds_2017_07_26_207.png2017-08-02 18:16 102K 
[Static image]WHOTS_2017_True_Winds_2017_08_01_213.png2017-08-02 18:18 104K 
[Static image]WHOTS_2017_True_Winds_2017_08_02_214.png2017-08-02 18:18 104K 
[Static image]WHOTS_2017_True_Winds_2017_07_28_209.png2017-08-02 18:17 105K 
[Static image]WHOTS_2017_COG_SOG_2017_07_25_206.png2017-08-02 18:16 108K 
[Static image]WHOTS_2017_COG_SOG_2017_08_01_213.png2017-08-02 18:18 110K 
[Static image]WHOTS_2017_COG_SOG_2017_07_31_212.png2017-08-02 18:17 112K 
[Static image]WHOTS_2017_COG_SOG_2017_07_29_210.png2017-08-02 18:17 113K 
[Static image]WHOTS_2017_COG_SOG_2017_08_02_214.png2017-08-02 18:18 114K 
[Static image]WHOTS_2017_Relative_Winds_2017_07_27_208.png2017-08-02 18:17 114K 
[Static image]WHOTS_2017_COG_SOG_2017_07_30_211.png2017-08-02 18:17 116K 
[Static image]WHOTS_2017_True_Winds_2017_07_25_206.png2017-08-02 18:16 116K 
[Static image]WHOTS_2017_COG_SOG_2017_07_28_209.png2017-08-02 18:17 117K 
[Static image]WHOTS_2017_Relative_Winds_2017_07_29_210.png2017-08-02 18:17 117K 
[Static image]WHOTS_2017_Relative_Winds_2017_07_28_209.png2017-08-02 18:17 119K 
[Static image]WHOTS_2017_Relative_Winds_2017_07_30_211.png2017-08-02 18:17 119K 
[Static image]WHOTS_2017_Relative_Winds_2017_07_26_207.png2017-08-02 18:16 120K 
[Static image]WHOTS_2017_Relative_Winds_2017_08_01_213.png2017-08-02 18:18 121K 
[Static image]WHOTS_2017_Relative_Winds_2017_08_02_214.png2017-08-02 18:18 121K 
[Static image]WHOTS_2017_Relative_Winds_2017_07_31_212.png2017-08-02 18:17 124K 
[Static image]WHOTS_2017_Relative_Winds_2017_07_25_206.png2017-08-02 18:16 125K 

×